Aeroporto :
LOGIN :

Iscrizione | Disclaimer

   EN    FR    IT 

 










Sommario :    VFR   VFR Marginale   IFR   IFR Intensivo   IFR Molto Intensivo
Visibilità : 
Base nubi : 
>= 8 km
>= 3000ft
5 / 8 km
1000 / 3000 ft
1500m / 5 km
500 / 1000 ft
800 / 1500m
200 / 500 ft
< 800m
< 200 ft
Simboli :   Temporali  Nebbia  Neve Forte  Precipitazioni Forti  Vento > 20 kt
SIGMETs :   Varie  Temporali  Ghiacco  Turbolenza  Onda orograficha  Ceneri Vulcaniche






- Altitudine del aeroporto : 1416 ft
- Codice IATA : ZRH


LSZH - Zurich

ULTIMO METAR :
  • 250420Z VRB03KT 0400 R14/0900D R16/1300U R28/P2000N R34/0800U PRFG VV002 09/09 Q1019 NOSIG

METARs OBSOLETI :
  • 250350Z 12003KT 0350 R14/0600D R16/1300D R28/0500D R34/P2000N PRFG VV002 08/08 Q1019 TEMPO 0200
  • 250320Z AUTO 15004KT 1000 0200E R14/0900D R16/0900D R28/0750U R34/P2000N PRFG VCFG FEW003 08/08 Q1019 TEMPO 0200 FG
  • 250250Z AUTO 16005KT 1100 0150E R14/1100D R16/0900D R28/0700D R34/P2000N PRFG VCFG NCD 08/08 Q1019 TEMPO 0400 FG
  • 250220Z AUTO 15004KT 3600 0200E R14/P2000N R16/P2000N R28/0900U R34/P2000N BCFG VCFG FEW001 08/08 Q1019 TEMPO 1200 PRFG
  • 250150Z AUTO 16005KT 9999 2500NE VCFG FEW001 08/08 Q1019 NOSIG
  • 250120Z AUTO 16003KT 9999 1000N R14/P2000N R16/1000U R28/P2000N R34/P2000N VCFG FEW003 07/07 Q1019 TEMPO 2500 BCFG
  • 250050Z AUTO 00000KT 9999 0200N R14/P2000N R16/P2000N R28/P2000N R34/P2000N BCFG VCFG NCD 08/08 Q1019 TEMPO 2500
  • 250020Z AUTO 10003KT 9999 FEW001 08/08 Q1019 TEMPO 2500 BCFG
  • 242350Z AUTO VRB02KT 9999 0900N R14/P2000N R16/P2000N R28/P2000N R34/P2000N FEW001 SCT003 09/09 Q1020 TEMPO 2500 BCFG

TAF AMD TAF LSZH
Valido dal 25 a 03 ore il 26 a 09 ore UTC


250312Z 2503/2609 VRB02KT 1200 PRFG FEW001 BKN002 TX21/2515Z TN08/2504Z TN08/2604Z
TEMPO 2503/2506 0400 FG VV002
PROB40
TEMPO 2504/2506 0200 FG VV001
BECMG 2505/2508 9999 FEW020
PROB40
TEMPO 2511/2519 26008KT SHRA FEW040TCU
PROB30
TEMPO 2512/2519 4500 TSRA FEW030CB
BECMG 2517/2520 CAVOK
PROB30
TEMPO 2604/2606 6000 MIFG NSC
ATIS : +41 43 816 2295 (DEP) +41 43 816 2294 (ARR)



MetMap, La meteo Aeronautica in un colpo d'occhio ! - Copyright ORBIFLY Dicembre 2007 - Disclaimer

ORBIFLY MET'MAP TEAM :

Programmazione e sviluppo : Alexandra Zaïnal
Concezione : Baudouin d'Aumeries
Supporto tecnico e logistico : Manuel Goepfert
Aiuto : Marc-Olivier Méhu
Aiuto per la traduzione : Arnaldo La Scala




FONTI E CREDITI :

   NOAA